CXY weather

Cat Cay Airport
North Cat Cay, Bimini, Bahamas

Public forecast

Using degrees Celsius for public forecast. Weather courtesy of forecast.io.

Closest aviation weather report (METAR) to Cat Cay Airport

Closest report is Fort Lauderdale Hollywood International Airport, 56.7 nm (105.0 km) WNW. Retrieved 2020/08/06 17:53 UTC (40 minutes ago):

KFLL 061753Z 13011KT 10SM SCT037 BKN060 33/25 A3002 RMK AO2 SLP166 T03280250 10328 20272 58005

Closest aviation forecast (TAF) to Cat Cay Airport

Closest forecast is Fort Lauderdale Hollywood International Airport, 56.7 nm (105.0 km) WNW. Retrieved 2020/08/06 18:27 UTC (6 minutes ago):

TAF KFLL 061724Z 0618/0724 12010KT P6SM VCTS SCT025CB TEMPO 0619/0623 5SM -TSRA BKN035CB FM070200 VRB04KT P6SM SCT025 BKN060 FM071500 09006KT P6SM VCTS BKN050CB